sensor_id;sensor_type;location;lat;lon;timestamp;pressure;altitude;pressure_sealevel;temperature;humidity
63096;BME280;49184;55.596;37.770;2022-11-04T00:01:20;99638.16;;;1.79;66.51
63096;BME280;49184;55.596;37.770;2022-11-04T00:03:46;99636.09;;;1.86;67.02
63096;BME280;49184;55.596;37.770;2022-11-04T00:06:12;99613.41;;;1.65;66.90
63096;BME280;49184;55.596;37.770;2022-11-04T00:08:38;99638.88;;;1.74;67.97
63096;BME280;49184;55.596;37.770;2022-11-04T00:11:05;99642.97;;;1.77;68.06
63096;BME280;49184;55.596;37.770;2022-11-04T00:13:49;99661.41;;;1.85;68.58
63096;BME280;49184;55.596;37.770;2022-11-04T00:16:16;99621.28;;;1.67;67.74
63096;BME280;49184;55.596;37.770;2022-11-04T00:19:00;99642.06;;;1.88;67.81
63096;BME280;49184;55.596;37.770;2022-11-04T00:21:27;99653.97;;;2.09;67.73
63096;BME280;49184;55.596;37.770;2022-11-04T00:24:15;99625.16;;;1.93;68.05
63096;BME280;49184;55.596;37.770;2022-11-04T00:26:59;99617.72;;;1.83;67.68
63096;BME280;49184;55.596;37.770;2022-11-04T00:29:44;99660.03;;;1.99;68.19
63096;BME280;49184;55.596;37.770;2022-11-04T00:32:12;99660.22;;;2.15;67.45
63096;BME280;49184;55.596;37.770;2022-11-04T00:34:57;99634.78;;;1.88;67.88
63096;BME280;49184;55.596;37.770;2022-11-04T00:37:23;99635.81;;;2.04;68.57
63096;BME280;49184;55.596;37.770;2022-11-04T00:39:49;99606.00;;;1.94;67.38
63096;BME280;49184;55.596;37.770;2022-11-04T00:42:16;99606.66;;;2.01;67.80
63096;BME280;49184;55.596;37.770;2022-11-04T00:44:42;99607.59;;;1.90;67.36
63096;BME280;49184;55.596;37.770;2022-11-04T00:47:08;99604.72;;;1.97;67.09
63096;BME280;49184;55.596;37.770;2022-11-04T00:49:34;99624.97;;;2.21;66.90
63096;BME280;49184;55.596;37.770;2022-11-04T00:52:00;99606.22;;;2.09;67.26
63096;BME280;49184;55.596;37.770;2022-11-04T00:54:27;99651.78;;;2.50;66.69
63096;BME280;49184;55.596;37.770;2022-11-04T00:56:53;99616.59;;;2.40;66.31
63096;BME280;49184;55.596;37.770;2022-11-04T00:59:19;99675.50;;;2.70;66.05
63096;BME280;49184;55.596;37.770;2022-11-04T01:01:46;99624.16;;;2.43;66.16
63096;BME280;49184;55.596;37.770;2022-11-04T01:04:12;99593.19;;;2.23;65.82
63096;BME280;49184;55.596;37.770;2022-11-04T01:06:38;99585.66;;;2.25;65.85
63096;BME280;49184;55.596;37.770;2022-11-04T01:09:07;99669.78;;;2.66;65.88
63096;BME280;49184;55.596;37.770;2022-11-04T01:11:33;99603.78;;;2.30;65.88
63096;BME280;49184;55.596;37.770;2022-11-04T01:14:00;99665.97;;;2.62;66.39
63096;BME280;49184;55.596;37.770;2022-11-04T01:16:27;99613.50;;;2.31;65.90
63096;BME280;49184;55.596;37.770;2022-11-04T01:18:53;99611.13;;;2.13;66.88
63096;BME280;49184;55.596;37.770;2022-11-04T01:21:20;99604.75;;;2.02;66.89
63096;BME280;49184;55.596;37.770;2022-11-04T01:23:46;99611.31;;;2.06;66.52
63096;BME280;49184;55.596;37.770;2022-11-04T01:26:18;99635.94;;;2.15;66.90
63096;BME280;49184;55.596;37.770;2022-11-04T01:28:45;99632.63;;;2.07;67.75
63096;BME280;49184;55.596;37.770;2022-11-04T01:31:14;99627.84;;;2.15;67.69
63096;BME280;49184;55.596;37.770;2022-11-04T01:33:40;99583.56;;;1.88;67.57
63096;BME280;49184;55.596;37.770;2022-11-04T01:36:09;99585.06;;;2.01;67.67
63096;BME280;49184;55.596;37.770;2022-11-04T01:38:36;99670.41;;;2.51;67.39
63096;BME280;49184;55.596;37.770;2022-11-04T01:41:03;99592.06;;;2.19;66.94
63096;BME280;49184;55.596;37.770;2022-11-04T01:46:33;99653.00;;;2.64;66.25
63096;BME280;49184;55.596;37.770;2022-11-04T01:51:48;99644.88;;;2.59;65.80
63096;BME280;49184;55.596;37.770;2022-11-04T01:54:15;99617.78;;;2.49;66.46
63096;BME280;49184;55.596;37.770;2022-11-04T01:56:42;99664.03;;;2.85;66.33
63096;BME280;49184;55.596;37.770;2022-11-04T01:59:16;99593.69;;;2.20;65.38
63096;BME280;49184;55.596;37.770;2022-11-04T02:01:44;99622.28;;;2.43;65.89
63096;BME280;49184;55.596;37.770;2022-11-04T02:04:12;99630.59;;;2.64;65.79
63096;BME280;49184;55.596;37.770;2022-11-04T02:06:56;99621.63;;;2.58;65.20
63096;BME280;49184;55.596;37.770;2022-11-04T02:09:25;99645.53;;;2.71;65.02
63096;BME280;49184;55.596;37.770;2022-11-04T02:11:52;99645.19;;;2.63;65.57
63096;BME280;49184;55.596;37.770;2022-11-04T02:14:38;99589.34;;;2.41;65.13
63096;BME280;49184;55.596;37.770;2022-11-04T02:30:58;99646.47;;;2.82;64.59
63096;BME280;49184;55.596;37.770;2022-11-04T02:36:08;99592.00;;;2.63;64.52
63096;BME280;49184;55.596;37.770;2022-11-04T02:41:36;99592.09;;;2.46;64.80
63096;BME280;49184;55.596;37.770;2022-11-04T02:44:25;99654.19;;;2.95;64.51
63096;BME280;49184;55.596;37.770;2022-11-04T02:47:04;99652.59;;;2.99;63.73
63096;BME280;49184;55.596;37.770;2022-11-04T02:52:09;99633.50;;;2.79;64.15
63096;BME280;49184;55.596;37.770;2022-11-04T02:54:59;99613.88;;;2.62;63.62
63096;BME280;49184;55.596;37.770;2022-11-04T02:57:31;99642.63;;;2.78;63.87
63096;BME280;49184;55.596;37.770;2022-11-04T03:00:06;99654.19;;;2.95;63.38
63096;BME280;49184;55.596;37.770;2022-11-04T03:03:10;99653.69;;;2.98;62.96
63096;BME280;49184;55.596;37.770;2022-11-04T03:05:34;99595.72;;;2.57;62.88
63096;BME280;49184;55.596;37.770;2022-11-04T03:08:07;99614.38;;;2.58;62.67
63096;BME280;49184;55.596;37.770;2022-11-04T03:10:47;99587.84;;;2.28;63.21
63096;BME280;49184;55.596;37.770;2022-11-04T03:13:25;99601.91;;;2.30;62.59
63096;BME280;49184;55.596;37.770;2022-11-04T03:15:57;99586.91;;;2.40;62.49
63096;BME280;49184;55.596;37.770;2022-11-04T03:21:14;99611.19;;;2.62;61.35
63096;BME280;49184;55.596;37.770;2022-11-04T03:23:42;99625.97;;;2.59;62.17
63096;BME280;49184;55.596;37.770;2022-11-04T03:26:29;99599.84;;;2.16;62.97
63096;BME280;49184;55.596;37.770;2022-11-04T03:34:23;99632.50;;;2.41;62.92
63096;BME280;49184;55.596;37.770;2022-11-04T03:36:49;99570.19;;;2.16;62.48
63096;BME280;49184;55.596;37.770;2022-11-04T03:39:16;99618.44;;;2.61;62.66
63096;BME280;49184;55.596;37.770;2022-11-04T03:41:55;99604.78;;;2.46;62.54
63096;BME280;49184;55.596;37.770;2022-11-04T03:44:23;99589.44;;;2.51;62.29
63096;BME280;49184;55.596;37.770;2022-11-04T03:46:53;99642.00;;;2.93;61.54
63096;BME280;49184;55.596;37.770;2022-11-04T03:49:20;99613.72;;;2.73;60.71
63096;BME280;49184;55.596;37.770;2022-11-04T03:51:48;99620.31;;;2.61;61.80
63096;BME280;49184;55.596;37.770;2022-11-04T03:54:14;99594.97;;;2.62;61.59
63096;BME280;49184;55.596;37.770;2022-11-04T03:57:02;99632.22;;;2.65;61.94
63096;BME280;49184;55.596;37.770;2022-11-04T03:59:44;99592.28;;;2.18;62.85
63096;BME280;49184;55.596;37.770;2022-11-04T04:02:22;99661.03;;;2.81;62.62
63096;BME280;49184;55.596;37.770;2022-11-04T04:04:59;99618.50;;;2.44;62.73
63096;BME280;49184;55.596;37.770;2022-11-04T04:07:37;99605.09;;;2.49;62.62
63096;BME280;49184;55.596;37.770;2022-11-04T04:10:36;99665.38;;;2.82;62.49
63096;BME280;49184;55.596;37.770;2022-11-04T04:16:06;99671.00;;;3.02;61.81
63096;BME280;49184;55.596;37.770;2022-11-04T04:18:50;99597.53;;;2.51;61.99
63096;BME280;49184;55.596;37.770;2022-11-04T04:21:21;99638.69;;;2.86;62.37
63096;BME280;49184;55.596;37.770;2022-11-04T04:23:52;99609.41;;;2.72;61.60
63096;BME280;49184;55.596;37.770;2022-11-04T04:26:39;99616.22;;;2.80;61.44
63096;BME280;49184;55.596;37.770;2022-11-04T04:29:25;99679.09;;;3.02;61.67
63096;BME280;49184;55.596;37.770;2022-11-04T04:31:53;99577.81;;;2.46;61.71
63096;BME280;49184;55.596;37.770;2022-11-04T04:34:25;99623.53;;;2.57;61.71
63096;BME280;49184;55.596;37.770;2022-11-04T04:37:06;99673.72;;;2.80;61.69
63096;BME280;49184;55.596;37.770;2022-11-04T04:40:00;99653.44;;;2.78;61.57
63096;BME280;49184;55.596;37.770;2022-11-04T04:42:45;99627.28;;;2.56;61.29
63096;BME280;49184;55.596;37.770;2022-11-04T04:45:37;99648.81;;;2.51;62.11
63096;BME280;49184;55.596;37.770;2022-11-04T04:48:08;99575.44;;;2.05;62.12
63096;BME280;49184;55.596;37.770;2022-11-04T04:50:39;99648.69;;;2.63;61.95
63096;BME280;49184;55.596;37.770;2022-11-04T04:53:10;99603.28;;;2.33;61.83
63096;BME280;49184;55.596;37.770;2022-11-04T04:55:41;99693.31;;;2.71;62.45
63096;BME280;49184;55.596;37.770;2022-11-04T04:58:10;99597.13;;;2.38;62.34
63096;BME280;49184;55.596;37.770;2022-11-04T05:00:36;99614.03;;;2.55;61.85
63096;BME280;49184;55.596;37.770;2022-11-04T05:03:02;99597.88;;;2.33;62.36
63096;BME280;49184;55.596;37.770;2022-11-04T05:05:28;99628.41;;;2.61;62.38
63096;BME280;49184;55.596;37.770;2022-11-04T05:07:55;99606.72;;;2.50;62.06
63096;BME280;49184;55.596;37.770;2022-11-04T05:10:28;99648.38;;;2.81;62.24
63096;BME280;49184;55.596;37.770;2022-11-04T05:12:54;99644.69;;;2.66;61.49
63096;BME280;49184;55.596;37.770;2022-11-04T05:15:38;99650.19;;;2.76;61.56
63096;BME280;49184;55.596;37.770;2022-11-04T05:18:05;99644.22;;;2.74;62.10
63096;BME280;49184;55.596;37.770;2022-11-04T05:20:31;99640.09;;;2.66;62.09
63096;BME280;49184;55.596;37.770;2022-11-04T05:22:58;99670.97;;;2.75;62.84
63096;BME280;49184;55.596;37.770;2022-11-04T05:25:25;99668.50;;;2.74;62.51
63096;BME280;49184;55.596;37.770;2022-11-04T05:27:51;99614.22;;;2.48;62.39
63096;BME280;49184;55.596;37.770;2022-11-04T05:30:17;99664.44;;;2.71;62.47
63096;BME280;49184;55.596;37.770;2022-11-04T05:32:50;99640.22;;;2.54;62.36
63096;BME280;49184;55.596;37.770;2022-11-04T05:35:22;99695.50;;;2.96;62.32
63096;BME280;49184;55.596;37.770;2022-11-04T05:37:48;99625.38;;;2.52;62.21
63096;BME280;49184;55.596;37.770;2022-11-04T05:40:15;99702.41;;;2.87;61.99
63096;BME280;49184;55.596;37.770;2022-11-04T05:42:41;99632.13;;;2.54;61.86
63096;BME280;49184;55.596;37.770;2022-11-04T05:45:08;99664.00;;;2.57;62.21
63096;BME280;49184;55.596;37.770;2022-11-04T05:47:34;99636.16;;;2.52;62.18
63096;BME280;49184;55.596;37.770;2022-11-04T05:50:00;99657.56;;;2.58;62.49
63096;BME280;49184;55.596;37.770;2022-11-04T05:52:26;99637.00;;;2.57;62.48
63096;BME280;49184;55.596;37.770;2022-11-04T05:54:52;99666.28;;;2.93;61.97
63096;BME280;49184;55.596;37.770;2022-11-04T05:57:24;99642.44;;;2.85;61.03
63096;BME280;49184;55.596;37.770;2022-11-04T05:59:50;99647.03;;;2.84;60.62
63096;BME280;49184;55.596;37.770;2022-11-04T06:02:16;99660.91;;;2.93;61.47
63096;BME280;49184;55.596;37.770;2022-11-04T06:04:42;99675.88;;;3.05;61.16
63096;BME280;49184;55.596;37.770;2022-11-04T06:07:08;99681.69;;;3.19;61.17
63096;BME280;49184;55.596;37.770;2022-11-04T06:09:34;99650.25;;;3.08;60.71
63096;BME280;49184;55.596;37.770;2022-11-04T06:12:08;99670.00;;;3.14;60.73
63096;BME280;49184;55.596;37.770;2022-11-04T06:14:35;99687.34;;;3.18;61.06
63096;BME280;49184;55.596;37.770;2022-11-04T06:17:02;99678.94;;;3.14;60.87
63096;BME280;49184;55.596;37.770;2022-11-04T06:19:28;99692.50;;;3.19;61.08
63096;BME280;49184;55.596;37.770;2022-11-04T06:21:54;99640.38;;;2.92;60.70
63096;BME280;49184;55.596;37.770;2022-11-04T06:24:20;99710.31;;;3.47;59.69
63096;BME280;49184;55.596;37.770;2022-11-04T06:26:48;99656.00;;;3.17;59.59
63096;BME280;49184;55.596;37.770;2022-11-04T06:29:17;99663.53;;;2.88;60.65
63096;BME280;49184;55.596;37.770;2022-11-04T06:31:43;99649.78;;;2.89;60.97
63096;BME280;49184;55.596;37.770;2022-11-04T06:34:09;99670.22;;;3.07;60.44
63096;BME280;49184;55.596;37.770;2022-11-04T06:36:36;99656.16;;;3.05;59.53
63096;BME280;49184;55.596;37.770;2022-11-04T06:39:03;99721.34;;;3.41;59.69
63096;BME280;49184;55.596;37.770;2022-11-04T06:41:30;99698.22;;;3.23;60.02
63096;BME280;49184;55.596;37.770;2022-11-04T06:43:56;99718.09;;;3.39;59.51
63096;BME280;49184;55.596;37.770;2022-11-04T06:46:28;99649.59;;;2.96;60.28
63096;BME280;49184;55.596;37.770;2022-11-04T06:48:56;99687.31;;;3.13;59.92
63096;BME280;49184;55.596;37.770;2022-11-04T06:51:23;99700.34;;;3.21;60.59
63096;BME280;49184;55.596;37.770;2022-11-04T06:53:50;99690.00;;;3.13;60.70
63096;BME280;49184;55.596;37.770;2022-11-04T06:56:16;99704.72;;;3.27;60.22
63096;BME280;49184;55.596;37.770;2022-11-04T06:58:43;99699.09;;;3.28;59.78
63096;BME280;49184;55.596;37.770;2022-11-04T07:01:11;99687.03;;;3.14;60.46
63096;BME280;49184;55.596;37.770;2022-11-04T07:03:37;99720.72;;;3.34;59.85
63096;BME280;49184;55.596;37.770;2022-11-04T07:06:08;99691.91;;;3.12;59.61
63096;BME280;49184;55.596;37.770;2022-11-04T07:08:34;99731.19;;;3.25;59.66
63096;BME280;49184;55.596;37.770;2022-11-04T07:11:01;99701.50;;;3.03;60.06
63096;BME280;49184;55.596;37.770;2022-11-04T07:13:28;99694.09;;;2.93;60.07
63096;BME280;49184;55.596;37.770;2022-11-04T07:15:54;99702.88;;;2.78;60.62
63096;BME280;49184;55.596;37.770;2022-11-04T07:18:20;99696.97;;;2.59;61.54
63096;BME280;49184;55.596;37.770;2022-11-04T07:20:46;99707.38;;;2.51;61.68
63096;BME280;49184;55.596;37.770;2022-11-04T07:23:13;99724.06;;;2.70;61.96
63096;BME280;49184;55.596;37.770;2022-11-04T07:25:39;99717.22;;;2.84;61.45
63096;BME280;49184;55.596;37.770;2022-11-04T07:28:05;99744.22;;;2.84;61.56
63096;BME280;49184;55.596;37.770;2022-11-04T07:30:31;99666.44;;;2.37;61.42
63096;BME280;49184;55.596;37.770;2022-11-04T07:32:57;99713.38;;;2.58;62.04
63096;BME280;49184;55.596;37.770;2022-11-04T07:35:23;99756.41;;;2.87;61.95
63096;BME280;49184;55.596;37.770;2022-11-04T07:37:49;99736.06;;;2.79;61.71
63096;BME280;49184;55.596;37.770;2022-11-04T07:40:15;99717.19;;;2.79;61.86
63096;BME280;49184;55.596;37.770;2022-11-04T07:42:42;99709.88;;;2.57;62.29
63096;BME280;49184;55.596;37.770;2022-11-04T07:45:15;99723.00;;;2.71;62.01
63096;BME280;49184;55.596;37.770;2022-11-04T07:47:42;99752.81;;;3.03;61.42
63096;BME280;49184;55.596;37.770;2022-11-04T07:50:08;99729.19;;;2.88;61.42
63096;BME280;49184;55.596;37.770;2022-11-04T07:52:34;99688.72;;;2.71;61.17
63096;BME280;49184;55.596;37.770;2022-11-04T07:55:00;99724.94;;;2.97;62.04
63096;BME280;49184;55.596;37.770;2022-11-04T07:57:27;99736.34;;;3.04;61.04
63096;BME280;49184;55.596;37.770;2022-11-04T07:59:54;99720.16;;;3.04;61.63
63096;BME280;49184;55.596;37.770;2022-11-04T08:02:22;99732.00;;;2.98;61.43
63096;BME280;49184;55.596;37.770;2022-11-04T08:04:50;99733.31;;;2.96;61.68
63096;BME280;49184;55.596;37.770;2022-11-04T08:07:16;99744.03;;;3.13;61.73
63096;BME280;49184;55.596;37.770;2022-11-04T08:09:42;99754.16;;;3.27;60.71
63096;BME280;49184;55.596;37.770;2022-11-04T08:12:08;99741.28;;;3.35;60.84
63096;BME280;49184;55.596;37.770;2022-11-04T08:14:35;99725.78;;;3.25;60.12
63096;BME280;49184;55.596;37.770;2022-11-04T08:17:01;99724.44;;;3.27;60.07
63096;BME280;49184;55.596;37.770;2022-11-04T08:19:27;99723.19;;;3.35;60.06
63096;BME280;49184;55.596;37.770;2022-11-04T08:21:55;99699.41;;;3.10;59.91
63096;BME280;49184;55.596;37.770;2022-11-04T08:24:21;99730.72;;;3.33;59.58
63096;BME280;49184;55.596;37.770;2022-11-04T08:26:47;99688.06;;;3.08;59.77
63096;BME280;49184;55.596;37.770;2022-11-04T08:29:13;99704.94;;;3.20;59.82
63096;BME280;49184;55.596;37.770;2022-11-04T08:31:41;99714.31;;;3.13;59.86
63096;BME280;49184;55.596;37.770;2022-11-04T08:34:07;99720.84;;;3.17;60.07
63096;BME280;49184;55.596;37.770;2022-11-04T08:36:36;99695.22;;;2.97;60.27
63096;BME280;49184;55.596;37.770;2022-11-04T08:39:04;99697.59;;;2.89;60.51
63096;BME280;49184;55.596;37.770;2022-11-04T08:41:33;99737.97;;;3.27;60.57
63096;BME280;49184;55.596;37.770;2022-11-04T08:43:59;99703.09;;;2.99;60.68
63096;BME280;49184;55.596;37.770;2022-11-04T08:46:32;99722.53;;;3.23;61.36
63096;BME280;49184;55.596;37.770;2022-11-04T08:48:59;99698.81;;;3.30;62.13
63096;BME280;49184;55.596;37.770;2022-11-04T08:51:28;99730.19;;;3.63;59.62
63096;BME280;49184;55.596;37.770;2022-11-04T08:53:54;99717.41;;;3.53;60.28
63096;BME280;49184;55.596;37.770;2022-11-04T08:56:24;99734.38;;;3.76;60.99
63096;BME280;49184;55.596;37.770;2022-11-04T08:58:51;99723.19;;;3.67;60.53
63096;BME280;49184;55.596;37.770;2022-11-04T09:01:19;99734.41;;;3.81;59.25
63096;BME280;49184;55.596;37.770;2022-11-04T09:03:46;99739.47;;;3.72;59.10
63096;BME280;49184;55.596;37.770;2022-11-04T09:06:42;99729.91;;;3.60;59.26
63096;BME280;49184;55.596;37.770;2022-11-04T09:09:13;99734.31;;;3.39;59.81
63096;BME280;49184;55.596;37.770;2022-11-04T09:11:41;99710.31;;;3.20;60.44
63096;BME280;49184;55.596;37.770;2022-11-04T09:14:09;99725.84;;;3.30;60.51
63096;BME280;49184;55.596;37.770;2022-11-04T09:16:37;99710.31;;;3.20;61.32
63096;BME280;49184;55.596;37.770;2022-11-04T09:19:03;99725.31;;;3.33;60.46
63096;BME280;49184;55.596;37.770;2022-11-04T09:21:30;99690.69;;;3.30;60.18
63096;BME280;49184;55.596;37.770;2022-11-04T09:23:56;99682.50;;;3.20;60.21
63096;BME280;49184;55.596;37.770;2022-11-04T09:26:23;99685.22;;;3.20;60.21
63096;BME280;49184;55.596;37.770;2022-11-04T09:28:54;99690.25;;;3.11;61.03
63096;BME280;49184;55.596;37.770;2022-11-04T09:31:21;99724.91;;;3.46;61.65
63096;BME280;49184;55.596;37.770;2022-11-04T09:33:47;99716.34;;;3.55;61.58
63096;BME280;49184;55.596;37.770;2022-11-04T09:36:15;99662.44;;;3.43;60.39
63096;BME280;49184;55.596;37.770;2022-11-04T09:38:42;99688.09;;;3.40;60.19
63096;BME280;49184;55.596;37.770;2022-11-04T09:41:10;99726.59;;;3.85;60.10
63096;BME280;49184;55.596;37.770;2022-11-04T09:43:52;99721.78;;;3.92;59.91
63096;BME280;49184;55.596;37.770;2022-11-04T09:46:23;99697.88;;;3.79;59.02
63096;BME280;49184;55.596;37.770;2022-11-04T09:48:53;99714.13;;;3.84;59.07
63096;BME280;49184;55.596;37.770;2022-11-04T09:51:24;99664.78;;;3.61;60.05
63096;BME280;49184;55.596;37.770;2022-11-04T09:53:57;99698.47;;;3.86;59.41
63096;BME280;49184;55.596;37.770;2022-11-04T09:56:33;99687.72;;;3.91;59.51
63096;BME280;49184;55.596;37.770;2022-11-04T09:59:02;99673.50;;;3.73;59.12
63096;BME280;49184;55.596;37.770;2022-11-04T10:01:43;99712.66;;;3.98;59.05
63096;BME280;49184;55.596;37.770;2022-11-04T10:07:08;99723.91;;;3.90;59.44
63096;BME280;49184;55.596;37.770;2022-11-04T10:10:05;99718.28;;;3.91;59.95
63096;BME280;49184;55.596;37.770;2022-11-04T10:15:37;99723.25;;;4.05;59.64
63096;BME280;49184;55.596;37.770;2022-11-04T10:18:38;99710.91;;;3.87;60.06
63096;BME280;49184;55.596;37.770;2022-11-04T10:26:41;99716.38;;;3.92;59.94
63096;BME280;49184;55.596;37.770;2022-11-04T10:29:22;99705.56;;;3.92;59.77
63096;BME280;49184;55.596;37.770;2022-11-04T10:31:51;99700.88;;;3.82;59.50
63096;BME280;49184;55.596;37.770;2022-11-04T10:34:34;99731.34;;;4.05;59.80
63096;BME280;49184;55.596;37.770;2022-11-04T10:37:02;99691.19;;;3.86;59.64
63096;BME280;49184;55.596;37.770;2022-11-04T10:39:33;99703.97;;;3.96;60.15
63096;BME280;49184;55.596;37.770;2022-11-04T10:42:00;99713.25;;;4.10;59.52
63096;BME280;49184;55.596;37.770;2022-11-04T10:44:31;99683.34;;;3.90;59.78
63096;BME280;49184;55.596;37.770;2022-11-04T10:49:52;99723.69;;;3.96;59.64
63096;BME280;49184;55.596;37.770;2022-11-04T10:52:35;99662.88;;;3.62;60.22
63096;BME280;49184;55.596;37.770;2022-11-04T10:57:42;99693.78;;;3.71;61.20
63096;BME280;49184;55.596;37.770;2022-11-04T11:00:35;99707.97;;;3.56;60.95
63096;BME280;49184;55.596;37.770;2022-11-04T11:03:06;99694.88;;;3.43;61.46
63096;BME280;49184;55.596;37.770;2022-11-04T11:05:47;99693.06;;;3.53;61.16
63096;BME280;49184;55.596;37.770;2022-11-04T11:08:27;99722.88;;;3.59;61.92
63096;BME280;49184;55.596;37.770;2022-11-04T11:10:54;99690.59;;;3.47;62.04
63096;BME280;49184;55.596;37.770;2022-11-04T11:13:28;99700.69;;;3.57;61.35
63096;BME280;49184;55.596;37.770;2022-11-04T11:16:31;99704.06;;;3.42;62.26
63096;BME280;49184;55.596;37.770;2022-11-04T11:21:49;99722.00;;;3.85;61.93
63096;BME280;49184;55.596;37.770;2022-11-04T11:24:21;99727.19;;;3.92;60.85
63096;BME280;49184;55.596;37.770;2022-11-04T11:26:50;99707.97;;;3.56;61.69
63096;BME280;49184;55.596;37.770;2022-11-04T11:29:23;99694.44;;;3.51;61.38
63096;BME280;49184;55.596;37.770;2022-11-04T11:31:50;99710.75;;;3.66;61.97
63096;BME280;49184;55.596;37.770;2022-11-04T11:34:27;99727.66;;;3.84;61.46
63096;BME280;49184;55.596;37.770;2022-11-04T11:36:56;99725.34;;;3.97;61.17
63096;BME280;49184;55.596;37.770;2022-11-04T11:39:24;99729.97;;;4.02;60.72
63096;BME280;49184;55.596;37.770;2022-11-04T11:42:09;99728.00;;;3.92;61.62
63096;BME280;49184;55.596;37.770;2022-11-04T11:45:02;99708.00;;;3.93;61.05
63096;BME280;49184;55.596;37.770;2022-11-04T11:47:36;99735.97;;;4.09;60.81
63096;BME280;49184;55.596;37.770;2022-11-04T11:50:15;99734.66;;;4.17;60.89
63096;BME280;49184;55.596;37.770;2022-11-04T11:52:44;99721.78;;;3.92;60.46
63096;BME280;49184;55.596;37.770;2022-11-04T11:55:33;99726.91;;;3.93;60.85
63096;BME280;49184;55.596;37.770;2022-11-04T11:58:16;99719.22;;;3.75;61.28
63096;BME280;49184;55.596;37.770;2022-11-04T12:01:00;99719.38;;;3.63;61.65
63096;BME280;49184;55.596;37.770;2022-11-04T12:03:37;99722.75;;;3.75;61.85
63096;BME280;49184;55.596;37.770;2022-11-04T12:28:31;99761.88;;;4.00;61.17
63096;BME280;49184;55.596;37.770;2022-11-04T12:31:29;99699.66;;;3.63;61.55
63096;BME280;49184;55.596;37.770;2022-11-04T12:36:47;99763.09;;;3.82;61.62
63096;BME280;49184;55.596;37.770;2022-11-04T12:39:32;99726.44;;;3.64;61.97
63096;BME280;49184;55.596;37.770;2022-11-04T12:42:16;99743.13;;;3.56;61.94
63096;BME280;49184;55.596;37.770;2022-11-04T12:47:40;99741.59;;;3.70;61.78
63096;BME280;49184;55.596;37.770;2022-11-04T13:00:40;99749.72;;;3.70;62.08
63096;BME280;49184;55.596;37.770;2022-11-04T13:03:13;99756.81;;;3.76;61.99
63096;BME280;49184;55.596;37.770;2022-11-04T13:05:55;99714.38;;;3.45;62.08
63096;BME280;49184;55.596;37.770;2022-11-04T13:11:10;99713.81;;;3.16;62.90
63096;BME280;49184;55.596;37.770;2022-11-04T13:16:40;99754.78;;;3.62;62.50
63096;BME280;49184;55.596;37.770;2022-11-04T13:19:23;99744.38;;;3.75;62.00
63096;BME280;49184;55.596;37.770;2022-11-04T13:21:52;99708.47;;;3.53;61.74
63096;BME280;49184;55.596;37.770;2022-11-04T13:24:37;99723.16;;;3.62;61.60
63096;BME280;49184;55.596;37.770;2022-11-04T13:27:43;99775.38;;;3.95;61.73
63096;BME280;49184;55.596;37.770;2022-11-04T13:33:46;99747.22;;;3.64;61.91
63096;BME280;49184;55.596;37.770;2022-11-04T13:39:12;99711.41;;;3.46;61.63
63096;BME280;49184;55.596;37.770;2022-11-04T13:44:46;99791.69;;;4.05;61.32
63096;BME280;49184;55.596;37.770;2022-11-04T13:47:21;99737.06;;;3.76;61.61
63096;BME280;49184;55.596;37.770;2022-11-04T13:49:56;99773.19;;;3.92;61.35
63096;BME280;49184;55.596;37.770;2022-11-04T13:52:31;99765.09;;;3.97;60.78
63096;BME280;49184;55.596;37.770;2022-11-04T13:55:32;99726.00;;;3.78;60.80
63096;BME280;49184;55.596;37.770;2022-11-04T13:58:22;99764.06;;;4.03;60.79
63096;BME280;49184;55.596;37.770;2022-11-04T14:01:24;99803.97;;;4.23;61.10
63096;BME280;49184;55.596;37.770;2022-11-04T14:07:01;99780.34;;;4.08;60.78
63096;BME280;49184;55.596;37.770;2022-11-04T14:09:35;99737.72;;;3.88;61.09
63096;BME280;49184;55.596;37.770;2022-11-04T14:15:06;99780.47;;;3.91;60.94
63096;BME280;49184;55.596;37.770;2022-11-04T14:20:00;99771.13;;;3.77;61.65
63096;BME280;49184;55.596;37.770;2022-11-04T14:22:55;99803.38;;;4.16;60.95
63096;BME280;49184;55.596;37.770;2022-11-04T14:25:39;99800.88;;;4.04;60.94
63096;BME280;49184;55.596;37.770;2022-11-04T14:28:17;99785.09;;;3.96;61.43
63096;BME280;49184;55.596;37.770;2022-11-04T14:41:22;99820.47;;;3.89;64.42
63096;BME280;49184;55.596;37.770;2022-11-04T14:43:57;99804.94;;;3.74;64.70
63096;BME280;49184;55.596;37.770;2022-11-04T14:46:28;99805.78;;;3.80;64.41
63096;BME280;49184;55.596;37.770;2022-11-04T14:48:57;99815.34;;;3.88;63.51
63096;BME280;49184;55.596;37.770;2022-11-04T14:51:31;99782.63;;;3.62;63.78
63096;BME280;49184;55.596;37.770;2022-11-04T14:54:20;99824.47;;;3.82;63.55
63096;BME280;49184;55.596;37.770;2022-11-04T14:56:48;99834.00;;;3.89;63.63
63096;BME280;49184;55.596;37.770;2022-11-04T14:59:26;99838.91;;;3.92;63.51
63096;BME280;49184;55.596;37.770;2022-11-04T15:01:53;99824.97;;;3.79;63.80
63096;BME280;49184;55.596;37.770;2022-11-04T15:04:24;99805.97;;;3.68;63.63
63096;BME280;49184;55.596;37.770;2022-11-04T15:07:03;99837.00;;;3.93;63.55
63096;BME280;49184;55.596;37.770;2022-11-04T15:09:32;99841.03;;;3.90;63.63
63096;BME280;49184;55.596;37.770;2022-11-04T15:12:11;99848.50;;;3.78;64.27
63096;BME280;49184;55.596;37.770;2022-11-04T15:14:57;99843.63;;;3.80;64.21
63096;BME280;49184;55.596;37.770;2022-11-04T15:17:25;99787.78;;;3.37;64.27
63096;BME280;49184;55.596;37.770;2022-11-04T15:19:56;99813.78;;;3.43;64.69
63096;BME280;49184;55.596;37.770;2022-11-04T15:22:24;99818.44;;;3.47;64.74
63096;BME280;49184;55.596;37.770;2022-11-04T15:24:52;99809.09;;;3.33;65.19
63096;BME280;49184;55.596;37.770;2022-11-04T15:27:27;99845.50;;;3.74;64.78
63096;BME280;49184;55.596;37.770;2022-11-04T15:30:15;99844.66;;;3.74;65.06
63096;BME280;49184;55.596;37.770;2022-11-04T15:33:00;99845.84;;;3.56;65.22
63096;BME280;49184;55.596;37.770;2022-11-04T15:35:31;99856.25;;;3.69;64.75
63096;BME280;49184;55.596;37.770;2022-11-04T15:38:00;99827.03;;;3.44;64.89